createdAt,value
2022-12-09T00:00:38.277Z,-0.02
2022-12-09T00:03:26.473Z,0.03
2022-12-09T00:06:17.934Z,-0.07
2022-12-09T00:09:06.300Z,-0.13
2022-12-09T00:11:55.728Z,-0.21
2022-12-09T00:14:43.838Z,-0.32
2022-12-09T00:17:32.211Z,-0.34
2022-12-09T00:20:20.267Z,-0.36
2022-12-09T00:23:08.256Z,-0.37
2022-12-09T00:25:57.915Z,-0.41
2022-12-09T00:28:47.936Z,-0.47
2022-12-09T00:31:38.448Z,-0.50
2022-12-09T00:34:26.508Z,-0.58
2022-12-09T00:37:14.480Z,-0.71
2022-12-09T00:40:02.435Z,-0.67
2022-12-09T00:42:50.527Z,-0.60
2022-12-09T00:45:39.856Z,-0.72
2022-12-09T00:48:28.341Z,-0.76
2022-12-09T00:51:18.680Z,-0.74
2022-12-09T00:54:06.977Z,-0.73
2022-12-09T00:56:57.101Z,-0.77
2022-12-09T00:59:45.101Z,-0.75
2022-12-09T01:02:34.593Z,-0.72
2022-12-09T01:05:22.610Z,-0.69
2022-12-09T01:08:12.323Z,-0.70
2022-12-09T01:11:00.326Z,-0.68
2022-12-09T01:13:49.397Z,-0.66
2022-12-09T01:16:37.701Z,-0.68
2022-12-09T01:19:27.108Z,-0.67
2022-12-09T01:22:15.055Z,-0.65
2022-12-09T01:25:03.654Z,-0.68
2022-12-09T01:27:51.554Z,-0.69
2022-12-09T01:30:39.616Z,-0.75
2022-12-09T01:33:29.456Z,-0.76
2022-12-09T01:36:21.497Z,-0.99
2022-12-09T01:39:10.986Z,-0.69
2022-12-09T01:41:59.220Z,-0.64
2022-12-09T01:45:20.720Z,-0.66
2022-12-09T01:48:14.404Z,-0.73
2022-12-09T01:51:11.386Z,-0.85
2022-12-09T01:54:00.906Z,-0.82
2022-12-09T01:56:49.022Z,-0.81
2022-12-09T01:59:37.819Z,-0.84
2022-12-09T02:02:28.652Z,-0.86
2022-12-09T02:05:17.444Z,-0.79
2022-12-09T02:08:13.984Z,-0.78
2022-12-09T02:11:15.480Z,-0.76
2022-12-09T02:14:15.271Z,-0.80
2022-12-09T02:17:22.200Z,-0.83
2022-12-09T02:20:19.972Z,-0.80
2022-12-09T02:23:17.061Z,-0.76
2022-12-09T02:26:17.462Z,-0.79
2022-12-09T02:29:34.550Z,-0.77
2022-12-09T02:32:59.346Z,-0.86
2022-12-09T02:35:56.079Z,-0.76
2022-12-09T02:38:45.814Z,-0.79
2022-12-09T02:41:36.752Z,-0.80
2022-12-09T02:44:27.890Z,-0.75
2022-12-09T02:47:19.709Z,-0.81
2022-12-09T02:50:13.218Z,-0.85
2022-12-09T02:53:07.686Z,-0.87
2022-12-09T02:55:57.259Z,-1.21
2022-12-09T02:58:46.383Z,-0.88
2022-12-09T03:01:48.353Z,-0.92
2022-12-09T03:04:42.765Z,-0.94
2022-12-09T03:08:08.081Z,-0.99
2022-12-09T03:11:01.133Z,-1.04
2022-12-09T03:13:56.642Z,-1.04
2022-12-09T03:16:50.894Z,-1.15
2022-12-09T03:19:44.221Z,-1.44
2022-12-09T03:22:35.593Z,-1.07
2022-12-09T03:25:29.194Z,-0.83
2022-12-09T03:28:24.424Z,-0.77
2022-12-09T03:31:17.273Z,-0.74
2022-12-09T03:34:08.637Z,-0.70
2022-12-09T03:36:59.484Z,-0.74
2022-12-09T03:39:48.882Z,-0.76
2022-12-09T03:42:43.792Z,-0.77
2022-12-09T03:45:33.270Z,-0.90
2022-12-09T03:48:22.378Z,-0.82
2022-12-09T03:51:15.396Z,-0.95
2022-12-09T03:54:09.913Z,-0.93
2022-12-09T03:56:59.450Z,-0.92
2022-12-09T03:59:54.066Z,-0.82
2022-12-09T04:02:42.080Z,-0.74
2022-12-09T04:05:30.136Z,-0.77
2022-12-09T04:08:18.234Z,-0.74
2022-12-09T04:11:06.914Z,-0.77
2022-12-09T04:13:54.888Z,-0.79
2022-12-09T04:16:44.644Z,-0.77
2022-12-09T04:19:32.816Z,-0.70
2022-12-09T04:22:21.440Z,-0.72
2022-12-09T04:25:10.449Z,-0.64
2022-12-09T04:27:58.415Z,-0.46
2022-12-09T04:30:46.941Z,-0.32
2022-12-09T04:33:37.015Z,-0.24
2022-12-09T04:36:25.113Z,-0.11
2022-12-09T04:39:13.385Z,0.02
2022-12-09T04:42:01.350Z,0.05
2022-12-09T04:44:49.614Z,0.13
2022-12-09T04:47:37.702Z,0.23
2022-12-09T04:50:28.010Z,0.26
2022-12-09T04:53:16.280Z,0.27
2022-12-09T04:56:07.228Z,0.28
2022-12-09T04:58:55.196Z,0.18
2022-12-09T05:01:44.422Z,0.15
2022-12-09T05:04:32.859Z,0.15
2022-12-09T05:07:23.419Z,0.10
2022-12-09T05:10:12.743Z,0.03
2022-12-09T05:13:01.032Z,-0.03
2022-12-09T05:15:49.243Z,0.01
2022-12-09T05:18:38.135Z,-0.02
2022-12-09T05:21:26.467Z,0.06
2022-12-09T05:24:16.111Z,0.21
2022-12-09T05:27:04.891Z,0.22
2022-12-09T05:29:53.175Z,0.26
2022-12-09T05:32:41.512Z,0.29
2022-12-09T05:35:29.934Z,0.30
2022-12-09T05:38:18.482Z,0.32
2022-12-09T05:41:09.466Z,0.27
2022-12-09T05:43:57.764Z,0.14
2022-12-09T05:46:46.163Z,-0.01
2022-12-09T05:49:34.710Z,0.01
2022-12-09T05:52:22.851Z,-0.04
2022-12-09T05:55:11.979Z,-0.26
2022-12-09T05:58:01.527Z,-0.34
2022-12-09T06:00:50.200Z,-0.38
2022-12-09T06:03:38.924Z,-0.35
2022-12-09T06:06:30.088Z,-0.27
2022-12-09T06:09:18.817Z,-0.17
2022-12-09T06:12:07.817Z,-0.27
2022-12-09T06:14:57.270Z,-0.47
2022-12-09T06:17:45.411Z,-0.51
2022-12-09T06:20:33.714Z,-0.62
2022-12-09T06:23:21.927Z,-0.72
2022-12-09T06:26:17.147Z,-0.80
2022-12-09T06:29:05.403Z,-0.93
2022-12-09T06:31:54.931Z,-1.03
2022-12-09T06:34:43.187Z,-1.13
2022-12-09T06:37:32.569Z,-1.07
2022-12-09T06:40:22.096Z,-1.09
2022-12-09T06:43:10.710Z,-1.33
2022-12-09T06:45:58.893Z,-1.13
2022-12-09T06:48:48.958Z,-1.17
2022-12-09T06:51:37.521Z,-1.23
2022-12-09T06:54:25.998Z,-1.30
2022-12-09T06:57:13.940Z,-1.25
2022-12-09T07:00:02.753Z,-1.25
2022-12-09T07:02:51.089Z,-1.18
2022-12-09T07:05:20.609Z,-1.17
2022-12-09T07:07:51.514Z,-1.12
2022-12-09T07:10:20.203Z,-1.13
2022-12-09T07:12:48.377Z,-1.07
2022-12-09T07:15:16.499Z,-1.06
2022-12-09T07:17:44.656Z,-1.05
2022-12-09T07:20:13.379Z,-1.08
2022-12-09T07:22:42.547Z,-0.99
2022-12-09T07:25:11.183Z,-0.98
2022-12-09T07:27:40.386Z,-0.99
2022-12-09T07:30:09.578Z,-0.93
2022-12-09T07:32:37.819Z,-0.90
2022-12-09T07:35:06.448Z,-1.02
2022-12-09T07:37:34.918Z,-1.00
2022-12-09T07:40:04.089Z,-0.98
2022-12-09T07:42:31.891Z,-0.82
2022-12-09T07:45:04.547Z,-0.82
2022-12-09T07:47:32.642Z,-0.56
2022-12-09T07:50:06.239Z,-0.37
2022-12-09T07:52:35.022Z,-0.22
2022-12-09T07:55:04.750Z,-0.19
2022-12-09T07:57:34.752Z,-0.17
2022-12-09T08:00:02.916Z,-0.15
2022-12-09T08:02:39.695Z,-0.09
2022-12-09T08:05:09.062Z,-0.08
2022-12-09T08:07:43.697Z,0.02
2022-12-09T08:10:13.982Z,0.09
2022-12-09T08:12:41.886Z,-0.01
2022-12-09T08:15:10.874Z,0.03
2022-12-09T08:17:39.528Z,0.13
2022-12-09T08:20:10.486Z,0.22
2022-12-09T08:22:39.110Z,0.37
2022-12-09T08:25:08.343Z,0.14
2022-12-09T08:27:38.113Z,0.42
2022-12-09T08:30:07.895Z,0.57
2022-12-09T08:32:36.486Z,0.66
2022-12-09T08:35:04.860Z,0.70
2022-12-09T08:37:33.334Z,0.80
2022-12-09T08:40:01.023Z,0.96
2022-12-09T08:42:30.702Z,0.87
2022-12-09T08:45:02.433Z,0.84
2022-12-09T08:47:31.299Z,0.89
2022-12-09T08:49:59.372Z,0.96
2022-12-09T08:52:27.575Z,1.02
2022-12-09T08:54:55.591Z,1.12
2022-12-09T08:57:24.372Z,1.19
2022-12-09T08:59:52.511Z,0.53
2022-12-09T09:02:22.014Z,1.36
2022-12-09T09:04:49.933Z,1.41
2022-12-09T09:07:18.577Z,1.46
2022-12-09T09:09:46.522Z,1.48
2022-12-09T09:12:14.778Z,1.52
2022-12-09T09:14:42.723Z,1.50
2022-12-09T09:17:10.542Z,1.60
2022-12-09T09:19:40.077Z,1.65
2022-12-09T09:22:08.063Z,1.54
2022-12-09T09:24:35.836Z,1.72
2022-12-09T09:27:04.158Z,1.70
2022-12-09T09:29:32.422Z,1.73
2022-12-09T09:32:00.307Z,1.70
2022-12-09T09:34:29.186Z,1.96
2022-12-09T09:36:58.710Z,1.97
2022-12-09T09:39:26.576Z,2.17
2022-12-09T09:41:57.185Z,2.34
2022-12-09T09:44:30.359Z,2.55
2022-12-09T09:46:59.515Z,2.76
2022-12-09T09:49:36.767Z,2.75
2022-12-09T09:52:09.488Z,2.81
2022-12-09T09:54:37.949Z,2.98
2022-12-09T09:57:14.261Z,2.98
2022-12-09T09:59:54.038Z,2.81
2022-12-09T10:02:36.690Z,2.81
2022-12-09T10:05:15.741Z,2.89
2022-12-09T10:07:51.576Z,2.96
2022-12-09T10:10:30.559Z,2.99
2022-12-09T10:13:17.608Z,2.84
2022-12-09T10:15:52.976Z,2.64
2022-12-09T10:18:26.016Z,2.73
2022-12-09T10:20:54.753Z,2.78
2022-12-09T10:23:25.205Z,2.94
2022-12-09T10:25:57.783Z,2.71
2022-12-09T10:28:28.459Z,2.91
2022-12-09T10:30:57.570Z,3.18
2022-12-09T10:33:33.339Z,3.15
2022-12-09T10:36:02.154Z,3.35
2022-12-09T10:38:33.036Z,3.51
2022-12-09T10:41:07.341Z,3.84
2022-12-09T10:43:38.665Z,3.93
2022-12-09T10:46:19.235Z,3.66
2022-12-09T10:48:55.932Z,4.05
2022-12-09T10:51:27.219Z,4.05
2022-12-09T10:54:00.023Z,3.93
2022-12-09T10:56:30.259Z,3.93
2022-12-09T10:59:11.620Z,3.98
2022-12-09T11:01:51.065Z,4.10
2022-12-09T11:04:24.112Z,3.69
2022-12-09T11:06:58.781Z,3.70
2022-12-09T11:09:33.305Z,3.74
2022-12-09T11:12:03.398Z,3.79
2022-12-09T11:14:36.079Z,3.80
2022-12-09T11:17:16.710Z,3.97
2022-12-09T11:19:48.955Z,3.60
2022-12-09T11:22:25.002Z,3.66
2022-12-09T11:24:56.719Z,3.63
2022-12-09T11:27:28.173Z,4.03
2022-12-09T11:30:13.160Z,4.25
2022-12-09T11:33:01.085Z,4.17
2022-12-09T11:35:40.272Z,4.21
2022-12-09T11:38:22.360Z,4.15
2022-12-09T11:41:03.806Z,4.20
2022-12-09T11:43:39.157Z,4.10
2022-12-09T11:46:19.046Z,3.94
2022-12-09T11:48:53.657Z,4.02
2022-12-09T11:51:23.734Z,4.08
2022-12-09T11:53:53.392Z,4.17
2022-12-09T11:56:26.600Z,4.04
2022-12-09T11:59:00.541Z,3.96
2022-12-09T12:01:37.140Z,3.95
2022-12-09T12:04:10.245Z,3.94
2022-12-09T12:06:45.723Z,3.95
2022-12-09T12:09:20.375Z,4.15
2022-12-09T12:11:59.025Z,4.24
2022-12-09T12:14:30.507Z,4.04
2022-12-09T12:17:08.556Z,3.95
2022-12-09T12:19:39.299Z,3.97
2022-12-09T12:22:25.634Z,3.83
2022-12-09T12:25:18.513Z,3.85
2022-12-09T12:28:01.186Z,3.87
2022-12-09T12:30:38.728Z,3.95
2022-12-09T12:36:19.241Z,3.59
2022-12-09T12:39:05.677Z,3.81
2022-12-09T12:41:41.197Z,3.90
2022-12-09T12:44:57.491Z,3.96
2022-12-09T12:47:32.460Z,4.05
2022-12-09T12:50:25.471Z,4.16
2022-12-09T12:52:59.353Z,4.00
2022-12-09T12:55:43.763Z,4.01
2022-12-09T12:58:18.131Z,4.07
2022-12-09T13:01:00.433Z,4.21
2022-12-09T13:03:37.375Z,4.23
2022-12-09T13:06:05.841Z,4.14
2022-12-09T13:08:38.086Z,3.96
2022-12-09T13:11:10.379Z,3.94
2022-12-09T13:13:43.546Z,3.97
2022-12-09T13:16:19.869Z,4.08
2022-12-09T13:18:49.943Z,3.93
2022-12-09T13:21:18.478Z,3.99
2022-12-09T13:24:01.442Z,3.90
2022-12-09T13:26:42.280Z,3.87
2022-12-09T13:29:21.295Z,3.34
2022-12-09T13:31:57.907Z,3.44
2022-12-09T13:34:36.550Z,3.50
2022-12-09T13:37:04.395Z,3.54
2022-12-09T13:39:58.779Z,3.55
2022-12-09T13:42:56.381Z,3.49
2022-12-09T13:45:33.295Z,3.43
2022-12-09T13:48:10.638Z,3.44
2022-12-09T13:50:44.060Z,2.84
2022-12-09T13:53:26.820Z,3.54
2022-12-09T13:55:57.558Z,3.62
2022-12-09T13:58:41.383Z,3.55
2022-12-09T14:01:19.645Z,3.62
2022-12-09T14:03:55.481Z,3.58
2022-12-09T14:06:27.420Z,3.70
2022-12-09T14:08:59.671Z,3.80
2022-12-09T14:11:48.434Z,3.73
2022-12-09T14:14:51.671Z,3.65
2022-12-09T14:17:59.874Z,3.61
2022-12-09T14:20:35.247Z,3.65
2022-12-09T14:23:20.924Z,3.67
2022-12-09T14:26:04.449Z,3.66
2022-12-09T14:28:53.489Z,3.43
2022-12-09T14:31:49.029Z,3.42
2022-12-09T14:34:28.436Z,3.40
2022-12-09T14:37:09.615Z,3.47
2022-12-09T14:39:45.993Z,3.39
2022-12-09T14:42:26.927Z,3.43
2022-12-09T14:45:02.685Z,3.30
2022-12-09T14:47:34.000Z,3.14
2022-12-09T14:50:09.722Z,3.20
2022-12-09T14:52:49.672Z,3.34
2022-12-09T14:55:17.941Z,3.17
2022-12-09T14:57:48.089Z,3.20
2022-12-09T15:00:28.633Z,3.22
2022-12-09T15:03:30.743Z,3.22
2022-12-09T15:05:55.155Z,3.20
2022-12-09T15:08:35.465Z,3.12
2022-12-09T15:11:11.145Z,3.00
2022-12-09T15:13:41.675Z,2.91
2022-12-09T15:16:11.363Z,3.24
2022-12-09T15:18:41.283Z,3.16
2022-12-09T15:21:09.314Z,3.13
2022-12-09T15:23:40.040Z,2.99
2022-12-09T15:26:09.699Z,3.16
2022-12-09T15:28:38.387Z,3.14
2022-12-09T15:31:08.261Z,3.08
2022-12-09T15:33:41.371Z,3.07
2022-12-09T15:36:12.399Z,3.13
2022-12-09T15:38:46.318Z,3.11
2022-12-09T15:41:31.941Z,2.60
2022-12-09T15:44:04.606Z,3.05
2022-12-09T15:46:34.869Z,3.09
2022-12-09T15:49:04.004Z,3.06
2022-12-09T15:51:37.360Z,2.94
2022-12-09T15:54:10.890Z,2.96
2022-12-09T15:56:43.264Z,2.96
2022-12-09T15:59:19.227Z,2.93
2022-12-09T16:01:50.017Z,2.86
2022-12-09T16:04:20.233Z,2.87
2022-12-09T16:06:50.054Z,2.84
2022-12-09T16:09:21.391Z,2.85
2022-12-09T16:11:50.959Z,2.81
2022-12-09T16:14:20.773Z,2.83
2022-12-09T16:16:50.818Z,2.79
2022-12-09T16:19:26.615Z,2.73
2022-12-09T16:21:56.542Z,2.77
2022-12-09T16:24:28.235Z,2.81
2022-12-09T16:27:07.348Z,2.75
2022-12-09T16:29:36.889Z,2.70
2022-12-09T16:32:30.281Z,2.52
2022-12-09T16:35:00.189Z,2.47
2022-12-09T16:37:37.847Z,2.40
2022-12-09T16:40:57.330Z,2.28
2022-12-09T16:43:26.839Z,2.15
2022-12-09T16:45:55.796Z,2.14
2022-12-09T16:48:25.763Z,2.08
2022-12-09T16:50:56.801Z,2.01
2022-12-09T16:53:27.074Z,2.08
2022-12-09T16:55:59.615Z,2.03
2022-12-09T16:58:28.102Z,1.91
2022-12-09T17:00:56.607Z,1.93
2022-12-09T17:03:35.587Z,1.75
2022-12-09T17:06:03.263Z,1.66
2022-12-09T17:08:32.039Z,1.69
2022-12-09T17:11:01.237Z,1.62
2022-12-09T17:13:29.003Z,1.58
2022-12-09T17:15:58.427Z,1.53
2022-12-09T17:18:27.210Z,1.33
2022-12-09T17:21:01.439Z,1.38
2022-12-09T17:23:30.083Z,1.33
2022-12-09T17:26:02.666Z,1.24
2022-12-09T17:28:31.155Z,1.28
2022-12-09T17:30:59.652Z,1.29
2022-12-09T17:33:28.259Z,1.36
2022-12-09T17:35:56.314Z,0.54
2022-12-09T17:38:24.167Z,1.57
2022-12-09T17:40:51.840Z,1.41
2022-12-09T17:43:20.829Z,1.63
2022-12-09T17:45:48.514Z,1.59
2022-12-09T17:48:16.172Z,1.63
2022-12-09T17:50:43.794Z,1.80
2022-12-09T17:53:11.411Z,1.80
2022-12-09T17:55:39.837Z,1.61
2022-12-09T17:58:07.541Z,1.85
2022-12-09T18:00:38.866Z,1.90
2022-12-09T18:03:06.530Z,1.97
2022-12-09T18:05:37.423Z,1.92
2022-12-09T18:08:05.706Z,2.02
2022-12-09T18:10:33.962Z,2.14
2022-12-09T18:13:01.662Z,2.21
2022-12-09T18:15:29.329Z,2.22
2022-12-09T18:17:58.647Z,2.28
2022-12-09T18:20:26.283Z,2.20
2022-12-09T18:22:53.927Z,2.23
2022-12-09T18:25:22.102Z,2.25
2022-12-09T18:27:49.725Z,2.19
2022-12-09T18:30:17.396Z,2.11
2022-12-09T18:32:45.075Z,2.21
2022-12-09T18:35:14.180Z,2.26
2022-12-09T18:37:41.825Z,2.31
2022-12-09T18:40:10.896Z,2.34
2022-12-09T18:42:38.539Z,2.38
2022-12-09T18:45:06.935Z,2.26
2022-12-09T18:47:34.554Z,2.35
2022-12-09T18:50:02.178Z,2.44
2022-12-09T18:52:31.241Z,2.33
2022-12-09T18:54:58.875Z,2.30
2022-12-09T18:57:30.733Z,2.46
2022-12-09T18:59:58.741Z,2.42
2022-12-09T19:02:26.623Z,2.41
2022-12-09T19:04:54.367Z,2.49
2022-12-09T19:07:22.055Z,2.46
2022-12-09T19:09:51.060Z,2.42
2022-12-09T19:15:07.580Z,2.42
2022-12-09T19:17:35.313Z,2.49
2022-12-09T19:20:03.055Z,2.40
2022-12-09T19:22:30.763Z,2.44
2022-12-09T19:24:59.736Z,2.47
2022-12-09T19:27:27.787Z,2.35
2022-12-09T19:29:55.423Z,2.56
2022-12-09T19:32:51.373Z,2.49
2022-12-09T19:35:10.749Z,2.48
2022-12-09T19:37:38.408Z,2.46
2022-12-09T19:40:09.284Z,2.52
2022-12-09T19:42:39.645Z,2.53
2022-12-09T19:45:13.659Z,2.54
2022-12-09T19:47:41.922Z,2.49
2022-12-09T19:50:10.245Z,2.36
2022-12-09T19:52:38.192Z,2.36
2022-12-09T19:55:08.660Z,2.40
2022-12-09T19:57:36.377Z,2.32
2022-12-09T20:00:05.185Z,2.37
2022-12-09T20:02:33.039Z,2.39
2022-12-09T20:05:00.708Z,2.34
2022-12-09T20:07:28.339Z,2.28
2022-12-09T20:09:56.080Z,2.28
2022-12-09T20:12:25.037Z,2.31
2022-12-09T20:14:52.680Z,2.32
2022-12-09T20:17:20.403Z,2.29
2022-12-09T20:19:48.194Z,2.09
2022-12-09T20:22:15.858Z,2.37
2022-12-09T20:24:44.136Z,2.33
2022-12-09T20:27:11.895Z,2.28
2022-12-09T20:29:40.991Z,1.98
2022-12-09T20:32:09.896Z,2.27
2022-12-09T20:34:37.730Z,1.68
2022-12-09T20:37:05.773Z,2.37
2022-12-09T20:39:33.613Z,2.31
2022-12-09T20:42:01.323Z,2.27
2022-12-09T20:44:29.096Z,2.23
2022-12-09T20:46:58.063Z,2.02
2022-12-09T20:49:27.533Z,2.13
2022-12-09T20:51:55.973Z,2.30
2022-12-09T20:54:23.938Z,2.37
2022-12-09T20:56:52.930Z,2.27
2022-12-09T20:59:20.594Z,2.28
2022-12-09T21:01:48.325Z,2.15
2022-12-09T21:04:36.292Z,2.13
2022-12-09T21:07:24.204Z,2.12
2022-12-09T21:10:12.111Z,2.14
2022-12-09T21:13:00.143Z,1.52
2022-12-09T21:15:48.138Z,2.04
2022-12-09T21:18:36.867Z,2.06
2022-12-09T21:21:27.875Z,2.12
2022-12-09T21:24:16.697Z,2.11
2022-12-09T21:27:04.721Z,2.16
2022-12-09T21:29:52.616Z,2.16
2022-12-09T21:32:41.644Z,2.15
2022-12-09T21:35:29.561Z,2.15
2022-12-09T21:38:18.834Z,2.12
2022-12-09T21:41:08.481Z,2.08
2022-12-09T21:43:57.777Z,2.15
2022-12-09T21:46:46.062Z,2.14
2022-12-09T21:49:34.232Z,2.14
2022-12-09T21:52:22.199Z,2.11
2022-12-09T21:55:11.731Z,2.22
2022-12-09T21:57:59.697Z,2.18
2022-12-09T22:00:47.922Z,2.21
2022-12-09T22:03:35.929Z,2.16
2022-12-09T22:06:24.144Z,2.12
2022-12-09T22:09:12.618Z,2.09
2022-12-09T22:12:01.951Z,1.94
2022-12-09T22:14:52.015Z,2.01
2022-12-09T22:17:40.262Z,1.44
2022-12-09T22:21:01.142Z,2.03
2022-12-09T22:23:36.200Z,2.00
2022-12-09T22:26:26.064Z,1.76
2022-12-09T22:29:16.936Z,1.96
2022-12-09T22:32:05.110Z,1.95
2022-12-09T22:34:54.509Z,1.92
2022-12-09T22:37:44.062Z,1.94
2022-12-09T22:40:32.423Z,2.00
2022-12-09T22:43:20.447Z,1.97
2022-12-09T22:46:11.772Z,1.94
2022-12-09T22:49:02.757Z,1.92
2022-12-09T22:51:50.736Z,1.90
2022-12-09T22:54:39.115Z,1.92
2022-12-09T22:57:27.041Z,1.87
2022-12-09T23:00:15.924Z,1.90
2022-12-09T23:03:05.419Z,1.75
2022-12-09T23:05:53.454Z,1.69
2022-12-09T23:08:43.300Z,1.75
2022-12-09T23:11:31.546Z,1.80
2022-12-09T23:14:19.850Z,1.87
2022-12-09T23:17:07.794Z,1.83
2022-12-09T23:19:57.484Z,1.88
2022-12-09T23:22:45.719Z,1.85
2022-12-09T23:25:34.234Z,1.87
2022-12-09T23:28:22.193Z,1.86
2022-12-09T23:31:13.389Z,1.82
2022-12-09T23:34:02.400Z,1.78
2022-12-09T23:36:52.143Z,1.80
2022-12-09T23:39:40.324Z,1.82
2022-12-09T23:42:28.277Z,1.85
2022-12-09T23:45:16.217Z,1.83
2022-12-09T23:48:04.213Z,1.81
2022-12-09T23:50:52.151Z,1.86
2022-12-09T23:53:42.266Z,1.80
2022-12-09T23:56:32.293Z,1.85
2022-12-09T23:59:22.613Z,1.78
